createdAt,value
2023-02-19T00:01:25.299Z,67.79
2023-02-19T00:03:57.251Z,68.10
2023-02-19T00:06:25.885Z,67.92
2023-02-19T00:08:53.328Z,68.52
2023-02-19T00:11:23.237Z,68.77
2023-02-19T00:13:52.570Z,68.79
2023-02-19T00:16:27.911Z,68.71
2023-02-19T00:18:57.161Z,68.78
2023-02-19T00:21:24.632Z,69.55
2023-02-19T00:24:00.874Z,69.88
2023-02-19T00:26:28.497Z,69.50
2023-02-19T00:28:56.992Z,69.91
2023-02-19T00:31:34.942Z,69.79
2023-02-19T00:34:04.410Z,69.61
2023-02-19T00:36:32.614Z,69.96
2023-02-19T00:38:59.478Z,69.58
2023-02-19T00:41:35.813Z,69.46
2023-02-19T00:44:05.790Z,69.83
2023-02-19T00:46:36.044Z,70.30
2023-02-19T00:49:04.598Z,70.28
2023-02-19T00:51:34.943Z,70.09
2023-02-19T00:54:02.304Z,70.38
2023-02-19T00:56:29.669Z,69.96
2023-02-19T00:58:56.795Z,70.13
2023-02-19T01:01:23.657Z,70.03
2023-02-19T01:03:50.888Z,70.29
2023-02-19T01:06:19.574Z,69.96
2023-02-19T01:08:46.688Z,69.97
2023-02-19T01:11:14.525Z,70.42
2023-02-19T01:13:41.942Z,70.25
2023-02-19T01:16:13.115Z,70.22
2023-02-19T01:18:40.174Z,70.35
2023-02-19T01:21:09.316Z,70.48
2023-02-19T01:23:36.274Z,70.70
2023-02-19T01:26:12.088Z,70.62
2023-02-19T01:28:38.996Z,70.85
2023-02-19T01:31:08.779Z,71.02
2023-02-19T01:33:35.745Z,71.19
2023-02-19T01:36:07.024Z,71.05
2023-02-19T01:38:34.035Z,71.11
2023-02-19T01:41:06.275Z,70.75
2023-02-19T01:43:35.377Z,70.89
2023-02-19T01:46:02.119Z,70.75
2023-02-19T01:48:39.742Z,70.99
2023-02-19T01:51:11.479Z,70.26
2023-02-19T01:53:43.696Z,70.04
2023-02-19T01:56:16.095Z,70.56
2023-02-19T01:58:43.803Z,70.51
2023-02-19T02:01:11.323Z,70.73
2023-02-19T02:03:41.906Z,70.52
2023-02-19T02:06:15.609Z,70.41
2023-02-19T02:09:01.075Z,70.47
2023-02-19T02:11:28.670Z,70.85
2023-02-19T02:13:55.920Z,70.48
2023-02-19T02:16:34.334Z,70.86
2023-02-19T02:19:36.533Z,71.09
2023-02-19T02:22:19.630Z,71.57
2023-02-19T02:25:04.584Z,71.91
2023-02-19T02:27:53.537Z,71.73
2023-02-19T02:30:38.026Z,71.89
2023-02-19T02:33:10.368Z,71.05
2023-02-19T02:35:47.994Z,71.38
2023-02-19T02:38:18.577Z,70.91
2023-02-19T02:40:45.487Z,71.22
2023-02-19T02:43:14.232Z,71.44
2023-02-19T02:45:41.733Z,70.39
2023-02-19T02:48:24.085Z,70.50
2023-02-19T02:50:53.902Z,70.81
2023-02-19T02:54:04.531Z,70.72
2023-02-19T02:56:31.974Z,70.01
2023-02-19T02:59:03.152Z,70.13
2023-02-19T03:01:55.365Z,69.81
2023-02-19T03:05:05.789Z,69.83
2023-02-19T03:07:41.733Z,70.44
2023-02-19T03:10:11.984Z,70.48
2023-02-19T03:12:59.250Z,70.45
2023-02-19T03:15:51.118Z,70.58
2023-02-19T03:18:38.170Z,71.12
2023-02-19T03:21:07.380Z,70.77
2023-02-19T03:23:54.201Z,71.01
2023-02-19T03:26:22.111Z,71.80
2023-02-19T03:29:12.015Z,72.20
2023-02-19T03:31:43.608Z,72.52
2023-02-19T03:34:16.795Z,72.80
2023-02-19T03:36:48.234Z,73.62
2023-02-19T03:39:20.284Z,73.49
2023-02-19T03:41:58.940Z,73.69
2023-02-19T03:44:53.484Z,73.65
2023-02-19T03:47:30.457Z,73.42
2023-02-19T03:49:57.343Z,73.21
2023-02-19T03:52:30.540Z,73.79
2023-02-19T03:55:20.615Z,73.86
2023-02-19T03:57:54.166Z,73.49
2023-02-19T04:00:37.015Z,73.46
2023-02-19T04:03:35.964Z,73.49
2023-02-19T04:06:10.473Z,73.59
2023-02-19T04:08:39.769Z,73.85
2023-02-19T04:11:09.040Z,73.61
2023-02-19T04:13:45.865Z,73.72
2023-02-19T04:16:21.842Z,73.83
2023-02-19T04:18:54.456Z,73.97
2023-02-19T04:21:23.043Z,73.80
2023-02-19T04:23:50.139Z,74.25
2023-02-19T04:26:19.572Z,74.34
2023-02-19T04:28:47.037Z,74.48
2023-02-19T04:31:14.617Z,75.04
2023-02-19T04:33:41.666Z,74.56
2023-02-19T04:36:10.994Z,74.85
2023-02-19T04:38:38.214Z,75.14
2023-02-19T04:41:05.109Z,75.13
2023-02-19T04:43:31.825Z,75.06
2023-02-19T04:46:02.440Z,74.69
2023-02-19T04:48:29.598Z,75.27
2023-02-19T04:50:56.387Z,75.07
2023-02-19T04:53:23.479Z,74.92
2023-02-19T04:55:53.317Z,75.18
2023-02-19T04:58:21.182Z,75.63
2023-02-19T05:00:51.872Z,74.95
2023-02-19T05:03:18.643Z,74.92
2023-02-19T05:05:45.322Z,75.29
2023-02-19T05:08:12.081Z,75.05
2023-02-19T05:10:38.788Z,75.01
2023-02-19T05:13:05.441Z,75.49
2023-02-19T05:15:32.182Z,75.42
2023-02-19T05:17:58.950Z,75.00
2023-02-19T05:20:25.568Z,74.89
2023-02-19T05:22:52.273Z,75.10
2023-02-19T05:25:19.033Z,74.42
2023-02-19T05:27:45.710Z,74.26
2023-02-19T05:30:13.198Z,74.36
2023-02-19T05:32:39.993Z,74.31
2023-02-19T05:35:06.936Z,74.14
2023-02-19T05:37:33.641Z,73.92
2023-02-19T05:40:00.382Z,74.26
2023-02-19T05:42:27.041Z,74.07
2023-02-19T05:44:53.904Z,73.62
2023-02-19T05:47:20.555Z,73.72
2023-02-19T05:49:47.223Z,73.56
2023-02-19T05:52:16.816Z,73.32
2023-02-19T05:54:43.513Z,73.56
2023-02-19T05:57:10.230Z,72.99
2023-02-19T05:59:36.990Z,73.32
2023-02-19T06:02:03.690Z,73.21
2023-02-19T06:04:30.353Z,73.00
2023-02-19T06:06:57.414Z,72.98
2023-02-19T06:09:24.097Z,72.54
2023-02-19T06:11:50.788Z,72.91
2023-02-19T06:14:17.557Z,72.20
2023-02-19T06:16:44.303Z,72.58
2023-02-19T06:19:11.056Z,72.75
2023-02-19T06:21:37.857Z,72.00
2023-02-19T06:24:06.744Z,72.32
2023-02-19T06:26:33.820Z,72.70
2023-02-19T06:29:00.617Z,72.38
2023-02-19T06:31:27.472Z,72.76
2023-02-19T06:33:55.079Z,72.17
2023-02-19T06:36:22.648Z,72.17
2023-02-19T06:38:49.633Z,72.33
2023-02-19T06:41:16.931Z,71.91
2023-02-19T06:43:43.862Z,72.05
2023-02-19T06:46:12.221Z,72.33
2023-02-19T06:48:40.330Z,71.85
2023-02-19T06:51:07.551Z,71.98
2023-02-19T06:53:34.311Z,71.26
2023-02-19T06:56:06.801Z,71.31
2023-02-19T06:58:34.034Z,70.61
2023-02-19T07:01:01.097Z,70.16
2023-02-19T07:03:28.154Z,70.25
2023-02-19T07:05:54.911Z,70.12
2023-02-19T07:08:21.590Z,70.12
2023-02-19T07:10:58.558Z,69.98
2023-02-19T07:13:29.727Z,69.62
2023-02-19T07:16:05.730Z,69.58
2023-02-19T07:18:32.562Z,69.34
2023-02-19T07:21:11.107Z,69.10
2023-02-19T07:23:38.471Z,68.63
2023-02-19T07:26:09.456Z,68.77
2023-02-19T07:28:36.195Z,69.52
2023-02-19T07:31:04.889Z,69.85
2023-02-19T07:33:35.447Z,69.88
2023-02-19T07:36:08.769Z,69.29
2023-02-19T07:38:36.186Z,69.58
2023-02-19T07:41:05.255Z,67.97
2023-02-19T07:43:34.426Z,67.99
2023-02-19T07:46:08.546Z,67.35
2023-02-19T07:48:36.692Z,65.79
2023-02-19T07:51:05.652Z,64.62
2023-02-19T07:53:34.650Z,65.03
2023-02-19T07:56:06.896Z,65.02
2023-02-19T07:58:34.498Z,64.90
2023-02-19T08:01:10.682Z,65.76
2023-02-19T08:03:38.579Z,65.53
2023-02-19T08:06:06.136Z,64.50
2023-02-19T08:08:32.872Z,64.37
2023-02-19T08:11:23.058Z,64.37
2023-02-19T08:13:51.317Z,64.44
2023-02-19T08:16:29.710Z,63.53
2023-02-19T08:19:00.255Z,63.40
2023-02-19T08:21:26.991Z,63.39
2023-02-19T08:23:53.952Z,62.56
2023-02-19T08:26:20.691Z,62.24
2023-02-19T08:28:48.744Z,61.93
2023-02-19T08:31:16.091Z,60.64
2023-02-19T08:33:42.872Z,60.08
2023-02-19T08:36:10.991Z,60.35
2023-02-19T08:38:38.553Z,58.61
2023-02-19T08:41:07.387Z,57.73
2023-02-19T08:43:35.233Z,56.83
2023-02-19T08:46:02.486Z,57.61
2023-02-19T08:48:29.415Z,55.22
2023-02-19T08:51:05.108Z,54.08
2023-02-19T08:53:32.972Z,54.44
2023-02-19T08:56:05.503Z,55.31
2023-02-19T08:58:33.116Z,54.64
2023-02-19T09:01:00.169Z,54.98
2023-02-19T09:03:27.013Z,55.15
2023-02-19T09:05:53.888Z,53.71
2023-02-19T09:08:20.611Z,53.87
2023-02-19T09:11:01.539Z,52.08
2023-02-19T09:13:28.339Z,52.12
2023-02-19T09:15:57.086Z,51.57
2023-02-19T09:18:25.537Z,52.91
2023-02-19T09:20:52.382Z,48.93
2023-02-19T09:23:19.156Z,49.60
2023-02-19T09:25:46.050Z,50.46
2023-02-19T09:28:12.994Z,51.43
2023-02-19T09:30:39.967Z,50.73
2023-02-19T09:33:06.989Z,51.52
2023-02-19T09:35:33.686Z,48.87
2023-02-19T09:38:02.052Z,49.14
2023-02-19T09:40:30.365Z,47.62
2023-02-19T09:42:57.664Z,46.27
2023-02-19T09:45:26.319Z,47.97
2023-02-19T09:47:59.590Z,48.22
2023-02-19T09:50:36.215Z,45.77
2023-02-19T09:53:11.961Z,45.40
2023-02-19T09:55:42.476Z,47.25
2023-02-19T09:58:27.365Z,47.01
2023-02-19T10:00:56.667Z,48.20
2023-02-19T10:03:31.786Z,49.89
2023-02-19T10:06:01.830Z,48.46
2023-02-19T10:08:32.850Z,45.44
2023-02-19T10:11:02.789Z,45.38
2023-02-19T10:13:34.058Z,43.70
2023-02-19T10:16:02.976Z,43.38
2023-02-19T10:18:37.794Z,44.33
2023-02-19T10:21:05.879Z,43.06
2023-02-19T10:23:33.566Z,43.40
2023-02-19T10:26:00.720Z,43.61
2023-02-19T10:28:34.016Z,41.82
2023-02-19T10:31:03.372Z,41.25
2023-02-19T10:33:30.541Z,40.92
2023-02-19T10:35:58.477Z,40.73
2023-02-19T10:38:29.398Z,41.92
2023-02-19T10:41:04.535Z,41.93
2023-02-19T10:43:35.482Z,41.87
2023-02-19T10:46:06.582Z,42.74
2023-02-19T10:48:47.344Z,41.84
2023-02-19T10:51:21.760Z,39.22
2023-02-19T10:53:51.924Z,37.51
2023-02-19T10:56:25.764Z,37.87
2023-02-19T10:58:52.841Z,37.13
2023-02-19T11:01:25.701Z,36.92
2023-02-19T11:04:13.424Z,38.69
2023-02-19T11:06:40.373Z,36.12
2023-02-19T11:09:25.688Z,35.43
2023-02-19T11:11:54.307Z,35.61
2023-02-19T11:14:24.194Z,37.20
2023-02-19T11:16:56.366Z,36.42
2023-02-19T11:19:39.372Z,36.17
2023-02-19T11:22:30.805Z,36.07
2023-02-19T11:25:06.581Z,37.56
2023-02-19T11:27:34.177Z,36.84
2023-02-19T11:30:40.189Z,38.40
2023-02-19T11:33:25.295Z,36.76
2023-02-19T11:36:20.839Z,38.17
2023-02-19T11:38:47.684Z,35.88
2023-02-19T11:41:32.180Z,36.76
2023-02-19T11:44:34.293Z,37.96
2023-02-19T11:47:47.151Z,39.91
2023-02-19T11:50:23.016Z,40.75
2023-02-19T11:52:58.958Z,41.40
2023-02-19T11:55:46.933Z,41.51
2023-02-19T11:58:32.220Z,43.13
2023-02-19T12:01:13.225Z,43.50
2023-02-19T12:03:55.661Z,43.37
2023-02-19T12:06:25.373Z,43.82
2023-02-19T12:09:20.108Z,43.73
2023-02-19T12:12:09.775Z,42.71
2023-02-19T12:14:55.609Z,41.30
2023-02-19T12:17:34.492Z,42.21
2023-02-19T12:20:10.612Z,42.96
2023-02-19T12:23:15.749Z,42.27
2023-02-19T12:26:02.961Z,43.13
2023-02-19T12:28:38.932Z,43.73
2023-02-19T12:31:33.060Z,44.46
2023-02-19T12:34:09.013Z,45.09
2023-02-19T12:36:39.342Z,44.68
2023-02-19T12:39:25.714Z,44.81
2023-02-19T12:42:13.521Z,45.37
2023-02-19T12:44:56.180Z,45.00
2023-02-19T12:47:31.101Z,43.68
2023-02-19T12:50:13.038Z,42.86
2023-02-19T12:52:42.624Z,42.62
2023-02-19T12:55:41.492Z,42.47
2023-02-19T12:58:14.483Z,42.33
2023-02-19T13:00:50.309Z,43.39
2023-02-19T13:03:25.671Z,43.37
2023-02-19T13:06:34.927Z,43.39
2023-02-19T13:09:34.704Z,41.57
2023-02-19T13:12:11.591Z,39.65
2023-02-19T13:14:48.730Z,35.40
2023-02-19T13:17:28.664Z,35.76
2023-02-19T13:20:09.377Z,34.88
2023-02-19T13:23:01.710Z,35.27
2023-02-19T13:25:44.674Z,35.76
2023-02-19T13:28:42.200Z,32.63
2023-02-19T13:31:32.149Z,34.32
2023-02-19T13:34:08.006Z,38.47
2023-02-19T13:36:36.228Z,38.53
2023-02-19T13:39:06.415Z,39.57
2023-02-19T13:41:55.307Z,40.29
2023-02-19T13:44:27.403Z,41.15
2023-02-19T13:46:54.302Z,43.18
2023-02-19T13:49:31.510Z,44.16
2023-02-19T13:52:01.151Z,45.29
2023-02-19T13:54:30.610Z,46.81
2023-02-19T13:57:22.520Z,47.21
2023-02-19T13:59:53.599Z,47.63
2023-02-19T14:02:20.354Z,47.90
2023-02-19T14:05:24.090Z,47.96
2023-02-19T14:07:55.540Z,44.55
2023-02-19T14:10:51.780Z,39.91
2023-02-19T14:13:47.756Z,39.78
2023-02-19T14:16:50.307Z,41.95
2023-02-19T14:19:42.784Z,42.89
2023-02-19T14:22:52.730Z,44.50
2023-02-19T14:25:27.617Z,44.11
2023-02-19T14:28:00.489Z,43.86
2023-02-19T14:30:28.475Z,43.86
2023-02-19T14:33:09.754Z,44.38
2023-02-19T14:35:45.302Z,44.66
2023-02-19T14:38:32.636Z,45.01
2023-02-19T14:41:00.374Z,44.79
2023-02-19T14:43:28.738Z,44.48
2023-02-19T14:46:00.315Z,44.35
2023-02-19T14:48:37.860Z,44.36
2023-02-19T14:51:11.925Z,44.51
2023-02-19T14:53:44.208Z,46.15
2023-02-19T14:56:23.879Z,49.31
2023-02-19T14:59:23.292Z,53.33
2023-02-19T15:01:58.612Z,53.48
2023-02-19T15:04:29.207Z,54.05
2023-02-19T15:06:57.089Z,54.76
2023-02-19T15:09:41.034Z,54.93
2023-02-19T15:12:08.455Z,55.44
2023-02-19T15:14:35.335Z,55.32
2023-02-19T15:17:08.009Z,55.36
2023-02-19T15:19:36.371Z,55.61
2023-02-19T15:22:03.504Z,55.76
2023-02-19T15:24:30.523Z,55.78
2023-02-19T15:26:57.680Z,55.25
2023-02-19T15:29:27.404Z,55.24
2023-02-19T15:31:59.760Z,55.32
2023-02-19T15:34:29.080Z,54.66
2023-02-19T15:37:00.201Z,54.96
2023-02-19T15:39:47.363Z,55.17
2023-02-19T15:42:24.152Z,55.19
2023-02-19T15:44:55.409Z,54.61
2023-02-19T15:47:25.091Z,54.64
2023-02-19T15:50:15.187Z,54.83
2023-02-19T15:52:45.911Z,54.49
2023-02-19T15:55:22.471Z,54.03
2023-02-19T15:58:05.940Z,54.45
2023-02-19T16:00:46.540Z,54.47
2023-02-19T16:03:19.675Z,54.28
2023-02-19T16:05:57.529Z,54.43
2023-02-19T16:08:32.571Z,54.06
2023-02-19T16:11:02.985Z,54.41
2023-02-19T16:13:31.193Z,54.22
2023-02-19T16:16:03.685Z,54.34
2023-02-19T16:18:31.172Z,54.84
2023-02-19T16:20:58.468Z,54.99
2023-02-19T16:23:27.368Z,54.88
2023-02-19T16:26:00.222Z,55.45
2023-02-19T16:28:29.739Z,55.46
2023-02-19T16:31:02.168Z,55.38
2023-02-19T16:33:53.403Z,55.25
2023-02-19T16:36:32.545Z,55.27
2023-02-19T16:39:08.375Z,55.06
2023-02-19T16:42:03.908Z,55.36
2023-02-19T16:44:31.372Z,55.31
2023-02-19T16:47:03.718Z,55.20
2023-02-19T16:49:30.933Z,55.69
2023-02-19T16:52:04.200Z,55.67
2023-02-19T16:54:31.324Z,55.96
2023-02-19T16:56:58.157Z,55.82
2023-02-19T16:59:24.888Z,55.64
2023-02-19T17:01:51.817Z,56.00
2023-02-19T17:04:18.756Z,55.58
2023-02-19T17:06:47.467Z,56.18
2023-02-19T17:09:14.259Z,55.86
2023-02-19T17:11:41.164Z,56.22
2023-02-19T17:14:08.335Z,55.68
2023-02-19T17:16:40.387Z,55.61
2023-02-19T17:19:16.815Z,55.50
2023-02-19T17:21:45.215Z,55.57
2023-02-19T17:24:12.724Z,55.83
2023-02-19T17:26:39.594Z,55.61
2023-02-19T17:29:08.438Z,55.32
2023-02-19T17:31:35.392Z,56.07
2023-02-19T17:34:02.213Z,55.52
2023-02-19T17:36:31.624Z,55.39
2023-02-19T17:39:00.259Z,55.35
2023-02-19T17:41:27.693Z,55.52
2023-02-19T17:43:54.619Z,55.11
2023-02-19T17:46:24.318Z,55.25
2023-02-19T17:48:51.258Z,54.99
2023-02-19T17:51:18.171Z,54.86
2023-02-19T17:53:46.591Z,54.90
2023-02-19T17:56:28.092Z,54.23
2023-02-19T17:58:56.845Z,54.45
2023-02-19T18:01:24.563Z,54.22
2023-02-19T18:03:52.644Z,54.08
2023-02-19T18:06:20.615Z,54.65
2023-02-19T18:08:49.676Z,53.36
2023-02-19T18:11:17.196Z,53.52
2023-02-19T18:13:44.273Z,53.70
2023-02-19T18:16:15.686Z,53.51
2023-02-19T18:18:43.821Z,53.64
2023-02-19T18:21:13.134Z,53.91
2023-02-19T18:23:40.934Z,54.08
2023-02-19T18:26:11.512Z,53.75
2023-02-19T18:28:39.048Z,53.99
2023-02-19T18:31:06.255Z,53.73
2023-02-19T18:33:35.207Z,54.26
2023-02-19T18:36:03.154Z,53.88
2023-02-19T18:38:30.682Z,54.50
2023-02-19T18:40:59.307Z,54.33
2023-02-19T18:43:26.688Z,53.66
2023-02-19T18:45:53.795Z,53.97
2023-02-19T18:48:20.856Z,54.09
2023-02-19T18:50:47.749Z,54.34
2023-02-19T18:53:14.661Z,54.22
2023-02-19T18:55:41.657Z,54.95
2023-02-19T18:58:10.759Z,54.47
2023-02-19T19:00:37.465Z,54.96
2023-02-19T19:03:05.037Z,55.07
2023-02-19T19:05:32.367Z,55.08
2023-02-19T19:07:59.675Z,55.38
2023-02-19T19:10:27.329Z,55.53
2023-02-19T19:12:54.656Z,55.26
2023-02-19T19:15:24.799Z,55.76
2023-02-19T19:17:52.565Z,56.21
2023-02-19T19:20:21.728Z,55.95
2023-02-19T19:22:50.757Z,56.19
2023-02-19T19:25:19.172Z,55.54
2023-02-19T19:27:46.191Z,55.92
2023-02-19T19:30:13.760Z,55.97
2023-02-19T19:32:40.905Z,56.24
2023-02-19T19:35:08.392Z,56.01
2023-02-19T19:37:35.423Z,55.95
2023-02-19T19:40:03.841Z,56.21
2023-02-19T19:42:30.894Z,55.95
2023-02-19T19:44:57.981Z,56.46
2023-02-19T19:47:24.780Z,56.03
2023-02-19T19:49:51.674Z,56.12
2023-02-19T19:52:18.441Z,56.24
2023-02-19T19:54:45.501Z,55.86
2023-02-19T19:57:12.454Z,56.46
2023-02-19T19:59:39.584Z,56.40
2023-02-19T20:02:07.736Z,56.56
2023-02-19T20:04:34.856Z,56.21
2023-02-19T20:07:02.328Z,56.11
2023-02-19T20:09:29.323Z,56.29
2023-02-19T20:11:56.999Z,56.51
2023-02-19T20:14:25.370Z,56.91
2023-02-19T20:16:53.446Z,56.80
2023-02-19T20:19:21.189Z,56.47
2023-02-19T20:21:50.131Z,56.94
2023-02-19T20:24:24.085Z,56.89
2023-02-19T20:26:53.697Z,56.60
2023-02-19T20:29:20.590Z,56.10
2023-02-19T20:31:50.048Z,56.67
2023-02-19T20:34:17.750Z,56.79
2023-02-19T20:36:46.731Z,56.18
2023-02-19T20:39:14.716Z,55.57
2023-02-19T20:41:49.959Z,56.05
2023-02-19T20:44:18.255Z,56.38
2023-02-19T20:46:48.405Z,55.79
2023-02-19T20:49:17.668Z,56.58
2023-02-19T20:51:55.883Z,57.03
2023-02-19T20:54:26.305Z,56.88
2023-02-19T20:56:54.927Z,57.00
2023-02-19T20:59:24.728Z,56.98
2023-02-19T21:01:52.081Z,57.01
2023-02-19T21:04:21.847Z,57.83
2023-02-19T21:06:50.388Z,57.56
2023-02-19T21:09:17.334Z,57.73
2023-02-19T21:11:44.619Z,57.44
2023-02-19T21:14:11.493Z,57.69
2023-02-19T21:16:38.441Z,57.90
2023-02-19T21:19:05.580Z,57.62
2023-02-19T21:21:34.380Z,58.25
2023-02-19T21:24:01.876Z,58.23
2023-02-19T21:26:39.915Z,57.87
2023-02-19T21:29:08.281Z,57.85
2023-02-19T21:31:40.182Z,58.22
2023-02-19T21:34:08.463Z,58.61
2023-02-19T21:36:35.815Z,58.35
2023-02-19T21:39:03.398Z,59.15
2023-02-19T21:41:30.144Z,58.52
2023-02-19T21:43:57.528Z,58.62
2023-02-19T21:46:25.166Z,58.43
2023-02-19T21:48:54.039Z,58.10
2023-02-19T21:51:33.251Z,57.92
2023-02-19T21:54:00.609Z,57.45
2023-02-19T21:56:31.619Z,57.98
2023-02-19T21:58:59.018Z,57.80
2023-02-19T22:01:40.464Z,58.61
2023-02-19T22:04:10.725Z,58.33
2023-02-19T22:06:39.594Z,58.51
2023-02-19T22:09:08.093Z,58.46
2023-02-19T22:11:35.564Z,58.46
2023-02-19T22:14:02.742Z,58.50
2023-02-19T22:16:29.807Z,58.67
2023-02-19T22:18:59.026Z,58.61
2023-02-19T22:21:28.841Z,58.41
2023-02-19T22:23:55.976Z,58.36
2023-02-19T22:26:25.720Z,58.58
2023-02-19T22:28:52.564Z,58.32
2023-02-19T22:31:21.731Z,58.00
2023-02-19T22:33:49.031Z,57.89
2023-02-19T22:36:22.205Z,57.70
2023-02-19T22:38:49.557Z,57.93
2023-02-19T22:41:17.718Z,57.78
2023-02-19T22:43:44.906Z,57.70
2023-02-19T22:46:23.553Z,57.90
2023-02-19T22:48:50.783Z,57.64
2023-02-19T22:51:20.251Z,57.67
2023-02-19T22:53:48.895Z,57.14
2023-02-19T22:56:20.693Z,57.00
2023-02-19T22:58:47.616Z,57.36
2023-02-19T23:01:15.237Z,57.55
2023-02-19T23:03:56.901Z,57.40
2023-02-19T23:06:29.428Z,57.22
2023-02-19T23:09:02.930Z,57.46
2023-02-19T23:11:33.194Z,57.50
2023-02-19T23:14:00.117Z,58.26
2023-02-19T23:16:27.087Z,57.77
2023-02-19T23:18:54.542Z,58.09
2023-02-19T23:21:22.092Z,57.43
2023-02-19T23:23:49.412Z,57.93
2023-02-19T23:26:17.230Z,57.78
2023-02-19T23:28:44.695Z,58.11
2023-02-19T23:31:12.876Z,57.64
2023-02-19T23:33:39.828Z,57.47
2023-02-19T23:36:07.538Z,57.80
2023-02-19T23:38:34.404Z,57.13
2023-02-19T23:41:01.600Z,57.03
2023-02-19T23:43:28.651Z,57.14
2023-02-19T23:45:55.465Z,57.38
2023-02-19T23:48:22.271Z,57.74
2023-02-19T23:50:49.025Z,57.43
2023-02-19T23:53:15.723Z,57.08
2023-02-19T23:55:42.565Z,57.13
2023-02-19T23:58:09.389Z,56.82
